Time;durP1;ratioP1;P1;durP2;ratioP2;P2;SDS_P1;SDS_P2;PMS_P1;PMS_P2;Temp;Humidity;BMP_temperature;BMP_pressure;BME280_temperature;BME280_humidity;BME280_pressure;Samples;Min_cycle;Max_cycle;Signal;HPM_P1;HPM_P2
2022/04/11 00:01:21;;;;;;;;;;;;;;;21.07;28.76;97023.00;5037483;28;963;-73
2022/04/11 00:03:46;;;;;;;;;;;;;;;20.90;29.37;97016.03;5037171;28;1973;-73
2022/04/11 00:06:11;;;;;;;;;;;;;;;20.96;29.06;97014.16;5037296;28;1118;-72
2022/04/11 00:08:38;;;;;;;;;;;;;;;20.94;29.12;97008.19;5037156;28;904;-73
2022/04/11 00:11:04;;;;;;;;;;;;;;;21.04;29.16;97012.63;5037287;28;937;-73
2022/04/11 00:13:29;;;;;;;;;;;;;;;21.41;28.39;97015.63;5037275;28;994;-73
2022/04/11 00:15:54;;;;;;;;;;;;;;;21.61;27.97;97012.38;5037067;28;989;-73
2022/04/11 00:18:20;;;;;;;;;;;;;;;21.83;27.75;97002.47;5037674;28;992;-73
2022/04/11 00:20:47;;;;;;;;;;;;;;;21.50;27.79;97004.31;5037038;28;993;-73
2022/04/11 00:23:13;;;;;;;;;;;;;;;21.09;28.41;96995.06;5037260;28;914;-73
2022/04/11 00:25:39;;;;;;;;;;;;;;;21.11;28.71;97001.03;5037023;28;1921;-73
2022/04/11 00:28:05;;;;;;;;;;;;;;;21.10;28.83;97007.94;5017948;28;1373;-73
2022/04/11 00:30:30;;;;;;;;;;;;;;;21.22;28.52;97012.69;5036527;28;977;-72
2022/04/11 00:32:55;;;;;;;;;;;;;;;21.02;28.65;97013.09;5036693;28;932;-72
2022/04/11 00:35:21;;;;;;;;;;;;;;;21.05;28.81;97017.03;4994755;28;1116;-72
2022/04/11 00:37:47;;;;;;;;;;;;;;;21.31;28.55;97018.41;4994911;28;1155;-73
2022/04/11 00:40:13;;;;;;;;;;;;;;;21.74;27.92;97022.28;4995013;28;984;-73
2022/04/11 00:42:38;;;;;;;;;;;;;;;21.79;27.42;97018.81;4955800;29;1029;-73
2022/04/11 00:45:04;;;;;;;;;;;;;;;21.23;28.37;97022.75;4923857;29;1903;-73
2022/04/11 00:47:29;;;;;;;;;;;;;;;21.00;28.43;97020.47;4955801;29;1043;-73
2022/04/11 00:49:56;;;;;;;;;;;;;;;21.14;28.62;97028.41;4955821;29;1154;-73
2022/04/11 00:52:21;;;;;;;;;;;;;;;21.02;28.58;97020.78;4917123;29;1117;-72
2022/04/11 00:54:47;;;;;;;;;;;;;;;21.42;28.11;97020.03;4917540;29;1004;-73
2022/04/11 00:57:15;;;;;;;;;;;;;;;21.73;27.50;97025.59;4901756;29;1031;-73
2022/04/11 00:59:40;;;;;;;;;;;;;;;21.59;27.57;97021.31;4879204;29;1024;-73
2022/04/11 01:02:06;;;;;;;;;;;;;;;21.28;27.80;97022.13;4879847;29;1458;-73
2022/04/11 01:04:31;;;;;;;;;;;;;;;21.20;28.21;97017.25;4879333;29;2132;-73
2022/04/11 01:06:57;;;;;;;;;;;;;;;21.28;28.12;97024.97;4879808;29;1305;-72
2022/04/11 01:09:23;;;;;;;;;;;;;;;21.16;28.51;97022.25;4879186;29;1039;-72
2022/04/11 01:11:49;;;;;;;;;;;;;;;20.98;28.54;97028.63;4879595;29;1359;-73
2022/04/11 01:14:14;;;;;;;;;;;;;;;21.18;28.25;97014.88;4879397;29;1048;-73
2022/04/11 01:16:44;;;;;;;;;;;;;;;21.24;28.34;97030.00;4879216;29;1029;-73
2022/04/11 01:19:10;;;;;;;;;;;;;;;21.14;28.55;97031.22;4901832;29;1181;-73
2022/04/11 01:21:35;;;;;;;;;;;;;;;21.14;28.16;97030.41;4935609;29;1062;-72
2022/04/11 01:24:00;;;;;;;;;;;;;;;21.04;28.65;97032.44;4945670;29;1906;-73
2022/04/11 01:26:27;;;;;;;;;;;;;;;20.96;28.68;97036.78;4954497;29;1059;-72
2022/04/11 01:28:52;;;;;;;;;;;;;;;21.01;28.48;97033.34;4935599;29;1602;-72
2022/04/11 01:31:18;;;;;;;;;;;;;;;21.05;28.64;97034.00;4921141;29;1144;-72
2022/04/11 01:33:43;;;;;;;;;;;;;;;21.53;27.78;97028.84;4945475;29;1082;-73
2022/04/11 01:36:09;;;;;;;;;;;;;;;21.64;27.50;97040.50;4954516;29;1116;-73
2022/04/11 01:38:34;;;;;;;;;;;;;;;21.57;27.18;97038.78;4916211;29;1315;-73
2022/04/11 01:41:00;;;;;;;;;;;;;;;21.37;27.92;97032.75;4916608;29;1065;-73
2022/04/11 01:43:26;;;;;;;;;;;;;;;21.20;27.99;97037.84;4916144;29;962;-73
2022/04/11 01:45:53;;;;;;;;;;;;;;;21.20;28.19;97035.00;4916236;29;2044;-73
2022/04/11 01:48:30;;;;;;;;;;;;;;;21.10;28.44;97041.88;4916417;29;1089;-73
2022/04/11 01:50:56;;;;;;;;;;;;;;;21.01;28.22;97039.78;4916318;29;1334;-73
2022/04/11 01:53:22;;;;;;;;;;;;;;;21.16;28.48;97028.72;4916312;29;1130;-73
2022/04/11 01:55:48;;;;;;;;;;;;;;;21.59;27.55;97039.06;4891505;29;1482;-73
2022/04/11 01:58:13;;;;;;;;;;;;;;;21.73;27.11;97048.25;4878595;29;1235;-73
2022/04/11 02:00:39;;;;;;;;;;;;;;;21.72;27.17;97050.28;4881872;29;1098;-73
2022/04/11 02:03:05;;;;;;;;;;;;;;;21.20;27.77;97042.72;4881581;29;1204;-73
2022/04/11 02:05:30;;;;;;;;;;;;;;;21.17;27.92;97035.16;4896751;29;1978;-73
2022/04/11 02:07:56;;;;;;;;;;;;;;;21.11;27.94;97037.00;4909033;29;888;-73
2022/04/11 02:10:25;;;;;;;;;;;;;;;21.57;27.49;97040.81;4884655;29;1361;-73
2022/04/11 02:12:51;;;;;;;;;;;;;;;21.77;27.04;97038.34;4913227;29;1340;-73
2022/04/11 02:15:16;;;;;;;;;;;;;;;21.76;26.92;97031.13;4916245;29;1148;-73
2022/04/11 02:17:42;;;;;;;;;;;;;;;21.43;27.46;97024.41;4935048;29;1112;-73
2022/04/11 02:20:08;;;;;;;;;;;;;;;21.20;27.75;97028.56;4915867;29;1163;-73
2022/04/11 02:22:47;;;;;;;;;;;;;;;21.16;27.92;97023.06;4916178;29;1381;-72
2022/04/11 02:25:12;;;;;;;;;;;;;;;21.04;28.00;97018.28;4934704;29;1906;-73
2022/04/11 02:27:38;;;;;;;;;;;;;;;21.43;27.52;97024.41;4915584;29;1295;-72
2022/04/11 02:30:04;;;;;;;;;;;;;;;21.89;26.80;97013.19;4916095;29;1006;-72
2022/04/11 02:32:29;;;;;;;;;;;;;;;21.72;26.67;97021.97;4881226;29;1125;-73
2022/04/11 02:34:55;;;;;;;;;;;;;;;21.29;27.33;97023.72;4878689;29;1000;-73
2022/04/11 02:37:21;;;;;;;;;;;;;;;21.26;27.40;97027.50;4878131;29;1055;-73
2022/04/11 02:39:46;;;;;;;;;;;;;;;21.19;27.81;97016.47;4909884;29;1081;-73
2022/04/11 02:42:22;;;;;;;;;;;;;;;21.65;27.18;97029.97;4912509;29;2067;-73
2022/04/11 02:44:49;;;;;;;;;;;;;;;21.94;26.40;97023.88;4896543;29;1911;-73
2022/04/11 02:47:14;;;;;;;;;;;;;;;21.47;27.14;97025.84;4915526;29;1108;-73
2022/04/11 02:49:40;;;;;;;;;;;;;;;21.42;27.21;97034.16;4877942;29;1063;-72
2022/04/11 02:52:21;;;;;;;;;;;;;;;21.25;27.20;97025.91;4844525;29;1249;-73
2022/04/11 02:54:47;;;;;;;;;;;;;;;21.49;27.32;97023.31;4896524;29;1261;-73
2022/04/11 02:57:13;;;;;;;;;;;;;;;21.84;26.74;97035.19;4864372;29;1158;-73
2022/04/11 02:59:38;;;;;;;;;;;;;;;21.89;26.22;97039.44;4895152;29;1128;-73
2022/04/11 03:02:04;;;;;;;;;;;;;;;21.44;26.80;97046.59;4896827;29;1141;-73
2022/04/11 03:04:30;;;;;;;;;;;;;;;21.25;27.28;97025.13;4844172;29;1994;-73
2022/04/11 03:07:16;;;;;;;;;;;;;;;21.28;27.34;97035.50;4859439;29;1088;-73
2022/04/11 03:09:42;;;;;;;;;;;;;;;21.10;27.42;97019.25;4859715;29;1139;-73
2022/04/11 03:12:09;;;;;;;;;;;;;;;21.12;27.68;97033.72;4859442;29;1533;-75
2022/04/11 03:14:34;;;;;;;;;;;;;;;21.13;27.47;97032.47;4859634;29;1001;-74
2022/04/11 03:17:01;;;;;;;;;;;;;;;21.58;26.85;97037.50;4881137;29;1487;-73
2022/04/11 03:19:30;;;;;;;;;;;;;;;21.82;26.73;97048.25;4865438;29;1330;-73
2022/04/11 03:21:56;;;;;;;;;;;;;;;21.71;26.33;97033.75;4900269;29;1191;-73
2022/04/11 03:24:21;;;;;;;;;;;;;;;21.39;27.33;97046.41;4884408;29;1911;-73
2022/04/11 03:26:47;;;;;;;;;;;;;;;21.28;27.33;97047.59;4917462;29;1128;-73
2022/04/11 03:29:21;;;;;;;;;;;;;;;21.19;27.55;97055.25;4918537;29;1229;-73
2022/04/11 03:31:48;;;;;;;;;;;;;;;21.12;27.32;97055.56;4918644;29;1067;-73
2022/04/11 03:34:14;;;;;;;;;;;;;;;21.12;27.33;97050.69;4918702;29;1109;-72
2022/04/11 03:36:39;;;;;;;;;;;;;;;21.09;27.43;97051.63;4899406;29;1041;-73
2022/04/11 03:39:05;;;;;;;;;;;;;;;21.33;27.15;97055.50;4880806;29;1107;-73
2022/04/11 03:41:33;;;;;;;;;;;;;;;21.84;26.34;97043.69;4887494;29;1141;-73
2022/04/11 03:44:10;;;;;;;;;;;;;;;21.88;26.19;97065.41;4891860;29;1985;-73
2022/04/11 03:46:37;;;;;;;;;;;;;;;21.76;26.09;97062.25;4862236;29;1659;-73
2022/04/11 03:49:02;;;;;;;;;;;;;;;21.44;26.97;97065.63;4862228;29;2030;-73
2022/04/11 03:51:28;;;;;;;;;;;;;;;21.26;27.23;97066.31;4879134;29;1240;-73
2022/04/11 03:53:55;;;;;;;;;;;;;;;21.13;27.11;97071.28;4880948;29;1082;-73
2022/04/11 03:56:20;;;;;;;;;;;;;;;21.41;26.93;97077.88;4880905;29;974;-74
2022/04/11 03:58:46;;;;;;;;;;;;;;;21.92;26.14;97085.88;4899399;29;1066;-73
2022/04/11 04:01:12;;;;;;;;;;;;;;;22.08;25.98;97074.25;4899245;29;1236;-73
2022/04/11 04:03:38;;;;;;;;;;;;;;;21.69;26.45;97090.84;4899038;29;1988;-73
2022/04/11 04:06:08;;;;;;;;;;;;;;;21.38;26.92;97095.78;4899109;29;1828;-73
2022/04/11 04:08:38;;;;;;;;;;;;;;;21.17;27.32;97092.50;4900190;29;1923;-73
2022/04/11 04:11:11;;;;;;;;;;;;;;;21.30;27.07;97096.06;4955072;29;1087;-73
2022/04/11 04:13:41;;;;;;;;;;;;;;;21.07;27.37;97100.16;4955467;29;1580;-74
2022/04/11 04:16:07;;;;;;;;;;;;;;;21.27;27.09;97096.19;4952499;29;1804;-73
2022/04/11 04:18:35;;;;;;;;;;;;;;;21.52;26.96;97100.88;4938721;29;1761;-73
2022/04/11 04:21:02;;;;;;;;;;;;;;;21.99;26.09;97106.19;4928859;29;1726;-73
2022/04/11 04:23:28;;;;;;;;;;;;;;;22.01;26.04;97114.22;4955780;29;1267;-73
2022/04/11 04:25:54;;;;;;;;;;;;;;;21.47;26.89;97110.75;4934452;29;1978;-73
2022/04/11 04:28:19;;;;;;;;;;;;;;;21.36;26.90;97101.91;4939221;29;1140;-73
2022/04/11 04:30:47;;;;;;;;;;;;;;;21.10;27.48;97114.66;4874276;29;1286;-73
2022/04/11 04:33:13;;;;;;;;;;;;;;;21.38;27.18;97118.41;4917712;29;977;-73
2022/04/11 04:35:41;;;;;;;;;;;;;;;21.88;26.52;97127.72;4917708;29;1097;-73
2022/04/11 04:38:09;;;;;;;;;;;;;;;21.95;26.10;97121.75;4928855;29;1898;-73
2022/04/11 04:40:44;;;;;;;;;;;;;;;21.44;26.82;97134.31;4918572;29;1657;-74
2022/04/11 04:43:11;;;;;;;;;;;;;;;21.44;26.78;97144.84;4933158;29;2007;-73
2022/04/11 04:45:37;;;;;;;;;;;;;;;21.17;27.12;97137.78;4936001;29;1911;-73
2022/04/11 04:48:15;;;;;;;;;;;;;;;21.21;27.22;97155.41;4920544;29;1956;-73
2022/04/11 04:50:41;;;;;;;;;;;;;;;21.65;26.48;97154.53;4920601;29;1619;-73
2022/04/11 04:53:10;;;;;;;;;;;;;;;21.85;26.50;97171.91;4920256;29;1489;-74
2022/04/11 04:55:36;;;;;;;;;;;;;;;21.44;26.62;97161.84;4936510;29;1006;-73
2022/04/11 04:58:02;;;;;;;;;;;;;;;21.23;27.17;97164.22;4920647;29;1109;-74
2022/04/11 05:00:28;;;;;;;;;;;;;;;21.38;27.07;97170.13;4920257;29;2104;-73
2022/04/11 05:02:55;;;;;;;;;;;;;;;21.70;26.51;97174.53;4938896;29;1367;-73
2022/04/11 05:05:22;;;;;;;;;;;;;;;22.11;25.94;97181.00;4939247;29;1907;-73
2022/04/11 05:07:50;;;;;;;;;;;;;;;22.18;25.83;97180.72;4939075;29;1242;-73
2022/04/11 05:10:20;;;;;;;;;;;;;;;21.69;26.21;97189.94;4939253;29;1288;-73
2022/04/11 05:12:47;;;;;;;;;;;;;;;21.32;27.01;97177.66;4946944;28;1153;-73
2022/04/11 05:15:15;;;;;;;;;;;;;;;21.44;26.89;97167.50;4994490;28;1584;-72
2022/04/11 05:17:44;;;;;;;;;;;;;;;21.33;26.88;97182.84;5033456;28;1724;-74
2022/04/11 05:20:11;;;;;;;;;;;;;;;21.72;26.63;97183.38;5007005;28;1997;-73
2022/04/11 05:22:38;;;;;;;;;;;;;;;22.01;26.21;97179.34;5014865;28;1798;-73
2022/04/11 05:25:04;;;;;;;;;;;;;;;22.03;26.09;97185.38;5010470;28;2102;-73
2022/04/11 05:27:32;;;;;;;;;;;;;;;21.52;26.77;97185.78;4994941;28;1080;-73
2022/04/11 05:29:57;;;;;;;;;;;;;;;21.39;26.88;97193.56;4977490;28;1257;-73
2022/04/11 05:32:23;;;;;;;;;;;;;;;21.23;27.48;97186.84;4945219;28;1316;-73
2022/04/11 05:34:49;;;;;;;;;;;;;;;21.26;26.98;97179.47;4990061;28;1259;-73
2022/04/11 05:37:15;;;;;;;;;;;;;;;21.11;27.13;97187.72;4997003;28;2102;-73
2022/04/11 05:39:42;;;;;;;;;;;;;;;21.28;27.31;97179.81;4996865;28;1419;-73
2022/04/11 05:42:08;;;;;;;;;;;;;;;21.70;26.67;97187.91;4957711;28;1345;-73
2022/04/11 05:44:35;;;;;;;;;;;;;;;22.14;25.89;97180.06;4935570;29;1902;-73
2022/04/11 05:47:01;;;;;;;;;;;;;;;22.20;25.67;97183.84;4924596;29;1960;-73
2022/04/11 05:49:38;;;;;;;;;;;;;;;21.39;26.93;97188.69;4881742;29;1224;-73
2022/04/11 05:52:04;;;;;;;;;;;;;;;21.23;27.28;97184.00;4897562;29;2042;-73
2022/04/11 05:54:30;;;;;;;;;;;;;;;21.18;27.24;97190.25;4878699;29;2028;-73
2022/04/11 05:56:56;;;;;;;;;;;;;;;21.57;27.04;97182.34;4860282;29;1257;-73
2022/04/11 05:59:23;;;;;;;;;;;;;;;21.93;26.17;97180.94;4844828;29;1289;-73
2022/04/11 06:01:48;;;;;;;;;;;;;;;21.92;26.18;97174.47;4810714;29;1283;-73
2022/04/11 06:04:15;;;;;;;;;;;;;;;21.55;26.77;97187.66;4798592;29;1900;-73
2022/04/11 06:06:40;;;;;;;;;;;;;;;21.29;26.95;97190.66;4787652;29;1307;-73
2022/04/11 06:09:06;;;;;;;;;;;;;;;21.49;27.17;97192.38;4819147;29;1470;-73
2022/04/11 06:11:33;;;;;;;;;;;;;;;21.90;26.64;97176.97;4823731;29;1111;-73
2022/04/11 06:13:59;;;;;;;;;;;;;;;22.13;26.27;97192.66;4838977;29;1476;-73
2022/04/11 06:16:24;;;;;;;;;;;;;;;21.63;26.43;97194.63;4856764;29;1582;-73
2022/04/11 06:18:50;;;;;;;;;;;;;;;21.39;26.89;97187.91;4858959;29;1809;-73
2022/04/11 06:21:16;;;;;;;;;;;;;;;21.08;27.43;97192.25;4859519;29;1837;-73
2022/04/11 06:23:42;;;;;;;;;;;;;;;21.38;27.24;97183.50;4843568;29;1899;-73
2022/04/11 06:26:07;;;;;;;;;;;;;;;21.81;26.60;97193.91;4871855;29;1813;-73
2022/04/11 06:28:41;;;;;;;;;;;;;;;21.98;26.42;97197.31;4904455;29;2021;-73
2022/04/11 06:31:11;;;;;;;;;;;;;;;21.50;26.71;97202.44;4896520;29;1596;-73
2022/04/11 06:33:37;;;;;;;;;;;;;;;21.27;27.04;97207.31;4857063;29;1850;-73
2022/04/11 06:36:03;;;;;;;;;;;;;;;21.36;27.25;97211.50;4844545;29;1741;-73
2022/04/11 06:38:28;;;;;;;;;;;;;;;21.87;26.61;97211.91;4857104;29;1843;-73
2022/04/11 06:40:57;;;;;;;;;;;;;;;22.04;26.33;97215.25;4837881;29;1730;-73
2022/04/11 06:43:25;;;;;;;;;;;;;;;21.56;26.75;97209.88;4840113;29;1826;-73
2022/04/11 06:46:10;;;;;;;;;;;;;;;21.39;27.19;97204.88;4831070;29;1623;-73
2022/04/11 06:48:37;;;;;;;;;;;;;;;21.20;27.24;97216.06;4850009;29;1916;-73
2022/04/11 06:51:03;;;;;;;;;;;;;;;21.54;26.92;97222.91;4844954;29;2089;-73
2022/04/11 06:53:28;;;;;;;;;;;;;;;21.84;26.42;97224.16;4844846;29;1676;-73
2022/04/11 06:55:53;;;;;;;;;;;;;;;21.88;26.26;97229.69;4844926;29;1017;-73
2022/04/11 06:58:19;;;;;;;;;;;;;;;21.41;26.84;97230.69;4862632;29;930;-73
2022/04/11 07:00:44;;;;;;;;;;;;;;;21.22;27.09;97253.16;4863299;29;1060;-73
2022/04/11 07:03:10;;;;;;;;;;;;;;;21.53;27.15;97246.81;4864957;29;1135;-73
2022/04/11 07:05:38;;;;;;;;;;;;;;;22.04;26.15;97260.59;4868758;29;2205;-74
2022/04/11 07:08:04;;;;;;;;;;;;;;;21.97;26.36;97267.34;4881787;29;1002;-73
2022/04/11 07:10:31;;;;;;;;;;;;;;;21.60;26.82;97283.31;4915961;29;998;-73
2022/04/11 07:12:57;;;;;;;;;;;;;;;21.35;27.05;97269.31;4919276;29;989;-73
2022/04/11 07:15:22;;;;;;;;;;;;;;;21.44;27.22;97300.50;4899728;29;1014;-73
2022/04/11 07:17:47;;;;;;;;;;;;;;;21.62;26.83;97303.47;4900354;29;988;-73
2022/04/11 07:20:14;;;;;;;;;;;;;;;21.94;26.36;97301.44;4898944;29;1713;-73
2022/04/11 07:22:39;;;;;;;;;;;;;;;21.85;26.30;97317.13;4928305;29;1051;-73
2022/04/11 07:25:05;;;;;;;;;;;;;;;21.39;27.09;97323.75;4938004;29;1914;-73
2022/04/11 07:27:30;;;;;;;;;;;;;;;21.21;27.33;97319.50;4939206;29;2031;-73
2022/04/11 07:29:56;;;;;;;;;;;;;;;21.21;27.49;97330.81;4973188;28;1825;-73
2022/04/11 07:32:21;;;;;;;;;;;;;;;21.76;26.89;97336.09;4942345;28;2228;-73
2022/04/11 07:34:47;;;;;;;;;;;;;;;21.97;26.44;97340.19;4950201;28;2221;-73
2022/04/11 07:37:13;;;;;;;;;;;;;;;21.47;27.04;97347.72;4953103;28;1881;-73
2022/04/11 07:39:38;;;;;;;;;;;;;;;21.31;27.34;97363.63;4949742;28;2362;-73
2022/04/11 07:42:04;;;;;;;;;;;;;;;21.31;27.60;97374.16;4949488;28;2037;-73
2022/04/11 07:44:29;;;;;;;;;;;;;;;21.33;27.63;97375.25;4956766;28;2239;-73
2022/04/11 07:46:55;;;;;;;;;;;;;;;21.77;26.80;97388.69;4963816;28;1907;-73
2022/04/11 07:49:20;;;;;;;;;;;;;;;21.88;26.59;97388.28;4977435;28;2280;-73
2022/04/11 07:51:46;;;;;;;;;;;;;;;21.63;26.71;97395.66;4979919;28;1743;-73
2022/04/11 07:54:11;;;;;;;;;;;;;;;21.50;27.14;97386.41;4994725;28;1947;-73
2022/04/11 07:56:37;;;;;;;;;;;;;;;21.25;27.69;97399.38;4957109;28;1832;-73
2022/04/11 07:59:02;;;;;;;;;;;;;;;21.29;27.47;97400.03;4983608;28;1770;-73
2022/04/11 08:01:28;;;;;;;;;;;;;;;21.42;27.55;97396.41;4993999;28;1917;-73
2022/04/11 08:03:54;;;;;;;;;;;;;;;21.80;26.75;97414.03;4998583;28;1984;-73
2022/04/11 08:06:19;;;;;;;;;;;;;;;21.91;26.81;97415.66;5015734;28;1681;-73
2022/04/11 08:08:46;;;;;;;;;;;;;;;21.36;27.39;97409.56;4997589;28;982;-73
2022/04/11 08:11:15;;;;;;;;;;;;;;;21.27;27.45;97413.06;4997781;28;1893;-73
2022/04/11 08:13:40;;;;;;;;;;;;;;;21.30;27.74;97424.31;4997759;28;1021;-73
2022/04/11 08:16:06;;;;;;;;;;;;;;;21.72;26.98;97414.75;5013129;28;1816;-73
2022/04/11 08:18:31;;;;;;;;;;;;;;;21.98;26.58;97415.41;5017170;28;1918;-73
2022/04/11 08:20:57;;;;;;;;;;;;;;;21.26;27.74;97417.94;5017111;28;1788;-74
2022/04/11 08:23:23;;;;;;;;;;;;;;;21.17;27.95;97425.53;5016858;28;990;-73
2022/04/11 08:25:49;;;;;;;;;;;;;;;21.21;27.97;97440.38;4975315;28;1910;-73
2022/04/11 08:28:14;;;;;;;;;;;;;;;21.65;27.41;97441.28;4975250;28;953;-73
2022/04/11 08:30:40;;;;;;;;;;;;;;;21.88;26.79;97439.25;4943132;28;1089;-73
2022/04/11 08:33:05;;;;;;;;;;;;;;;21.68;27.13;97448.84;4971230;28;2104;-73
2022/04/11 08:35:31;;;;;;;;;;;;;;;21.32;27.56;97438.00;4956121;29;981;-73
2022/04/11 08:37:56;;;;;;;;;;;;;;;21.08;27.83;97451.69;4956142;29;1094;-73
2022/04/11 08:40:22;;;;;;;;;;;;;;;21.13;28.08;97442.63;4956461;28;1067;-73
2022/04/11 08:42:50;;;;;;;;;;;;;;;21.89;26.92;97455.00;4956022;29;909;-73
2022/04/11 08:45:17;;;;;;;;;;;;;;;21.95;26.94;97456.00;4959624;28;1969;-73
2022/04/11 08:47:43;;;;;;;;;;;;;;;21.61;27.31;97434.97;4950607;29;1821;-73
2022/04/11 08:50:08;;;;;;;;;;;;;;;21.27;27.74;97452.69;4955125;29;1884;-73
2022/04/11 08:52:35;;;;;;;;;;;;;;;21.24;27.77;97457.22;4955621;29;1115;-73
2022/04/11 08:55:01;;;;;;;;;;;;;;;21.41;27.60;97462.78;4932251;29;1875;-73
2022/04/11 08:57:26;;;;;;;;;;;;;;;21.75;27.05;97464.78;4936322;29;1006;-73
2022/04/11 08:59:51;;;;;;;;;;;;;;;21.60;27.25;97475.81;4934119;29;1788;-73
2022/04/11 09:02:18;;;;;;;;;;;;;;;21.27;27.94;97470.44;4939088;28;1730;-73
2022/04/11 09:04:55;;;;;;;;;;;;;;;21.18;27.78;97467.53;4972331;28;1969;-73
2022/04/11 09:07:21;;;;;;;;;;;;;;;21.56;27.37;97463.84;4973613;28;1679;-73
2022/04/11 09:09:47;;;;;;;;;;;;;;;21.93;26.77;97447.97;4973698;28;1806;-73
2022/04/11 09:12:12;;;;;;;;;;;;;;;22.21;26.41;97468.78;4974699;28;1003;-73
2022/04/11 09:14:38;;;;;;;;;;;;;;;21.43;27.46;97454.59;4952236;28;1790;-73
2022/04/11 09:17:03;;;;;;;;;;;;;;;21.28;27.47;97471.25;4947922;29;1931;-73
2022/04/11 09:19:29;;;;;;;;;;;;;;;21.32;27.15;97467.06;4953230;28;1688;-72
2022/04/11 09:21:54;;;;;;;;;;;;;;;21.61;27.32;97470.97;4954709;28;2032;-73
2022/04/11 09:24:24;;;;;;;;;;;;;;;21.88;26.88;97473.25;4921689;28;1994;-73
2022/04/11 09:26:54;;;;;;;;;;;;;;;22.03;26.56;97471.47;4971625;28;1073;-73
2022/04/11 09:29:19;;;;;;;;;;;;;;;21.49;27.27;97469.75;4972118;28;1819;-73
2022/04/11 09:31:45;;;;;;;;;;;;;;;21.38;27.16;97463.66;4973678;28;1808;-73
2022/04/11 09:34:25;;;;;;;;;;;;;;;21.28;27.36;97472.03;4972728;28;1867;-73
2022/04/11 09:36:54;;;;;;;;;;;;;;;21.25;27.71;97472.16;4961693;28;1850;-73
2022/04/11 09:39:20;;;;;;;;;;;;;;;21.16;27.62;97475.69;4955136;28;1548;-73
2022/04/11 09:41:46;;;;;;;;;;;;;;;21.06;27.86;97485.31;4954990;29;1038;-73
2022/04/11 09:44:20;;;;;;;;;;;;;;;21.51;27.52;97485.03;4956102;28;1974;-73
2022/04/11 09:46:46;;;;;;;;;;;;;;;21.99;26.39;97490.66;5012312;28;1725;-73
2022/04/11 09:49:12;;;;;;;;;;;;;;;21.61;26.84;97479.47;5013962;28;1787;-73
2022/04/11 09:51:37;;;;;;;;;;;;;;;21.18;27.50;97507.13;5014341;28;1600;-73
2022/04/11 09:54:22;;;;;;;;;;;;;;;21.18;27.63;97495.03;4997374;28;1559;-73
2022/04/11 09:56:48;;;;;;;;;;;;;;;21.48;27.38;97496.47;5014961;28;1818;-73
2022/04/11 09:59:13;;;;;;;;;;;;;;;21.94;26.67;97496.91;4998706;28;1787;-73
2022/04/11 10:01:39;;;;;;;;;;;;;;;21.33;27.40;97496.94;4973042;28;1828;-73
2022/04/11 10:04:05;;;;;;;;;;;;;;;21.23;27.19;97486.75;4973916;28;1907;-73
2022/04/11 10:06:30;;;;;;;;;;;;;;;21.14;27.32;97495.16;4972970;28;1831;-73
2022/04/11 10:08:56;;;;;;;;;;;;;;;21.37;27.68;97505.34;4933753;29;2816;-72
2022/04/11 10:11:21;;;;;;;;;;;;;;;21.72;26.81;97502.53;4919138;29;2765;-73
2022/04/11 10:13:47;;;;;;;;;;;;;;;22.03;26.35;97500.59;4919863;29;1017;-73
2022/04/11 10:16:12;;;;;;;;;;;;;;;21.75;26.53;97510.88;4934865;29;2080;-73
2022/04/11 10:18:38;;;;;;;;;;;;;;;21.42;26.84;97498.31;4917524;29;1767;-73
2022/04/11 10:21:05;;;;;;;;;;;;;;;21.41;27.09;97491.06;4916151;29;1065;-73
2022/04/11 10:23:31;;;;;;;;;;;;;;;21.28;26.86;97503.16;4899778;29;2094;-73
2022/04/11 10:25:59;;;;;;;;;;;;;;;21.61;26.71;97502.13;4918444;29;1915;-73
2022/04/11 10:28:25;;;;;;;;;;;;;;;21.98;26.10;97494.72;4882430;29;1084;-73
2022/04/11 10:31:06;;;;;;;;;;;;;;;21.92;25.92;97496.59;4882765;29;1090;-72
2022/04/11 10:33:44;;;;;;;;;;;;;;;21.41;26.69;97496.72;4882522;29;1086;-73
2022/04/11 10:36:28;;;;;;;;;;;;;;;21.19;26.89;97503.06;4882465;29;1775;-73
2022/04/11 10:39:12;;;;;;;;;;;;;;;21.59;26.34;97513.88;4883408;29;968;-73
2022/04/11 10:41:58;;;;;;;;;;;;;;;21.87;25.87;97534.00;4900903;29;1114;-73
2022/04/11 10:44:30;;;;;;;;;;;;;;;21.54;26.25;97517.28;4901088;29;1895;-73
2022/04/11 10:47:08;;;;;;;;;;;;;;;21.45;26.32;97537.00;4900577;29;1789;-73
2022/04/11 10:49:49;;;;;;;;;;;;;;;21.23;26.51;97537.69;4924958;29;1830;-73
2022/04/11 10:52:29;;;;;;;;;;;;;;;21.55;26.32;97542.34;4957686;29;998;-73
2022/04/11 10:54:55;;;;;;;;;;;;;;;21.91;25.65;97538.25;4936742;29;1996;-73
2022/04/11 10:57:36;;;;;;;;;;;;;;;21.55;26.08;97547.19;4937900;29;1550;-73
2022/04/11 11:00:06;;;;;;;;;;;;;;;21.46;26.25;97549.94;4952339;29;1761;-73
2022/04/11 11:02:50;;;;;;;;;;;;;;;21.17;26.38;97556.47;4956562;28;1833;-73
2022/04/11 11:05:31;;;;;;;;;;;;;;;21.49;26.28;97566.00;4956305;29;2697;-73
2022/04/11 11:08:14;;;;;;;;;;;;;;;21.67;26.02;97566.19;4957172;29;2342;-73
2022/04/11 11:10:41;;;;;;;;;;;;;;;21.63;26.04;97564.72;4956430;29;1823;-73
2022/04/11 11:13:27;;;;;;;;;;;;;;;21.45;25.90;97576.63;4957603;29;1009;-72
2022/04/11 11:15:53;;;;;;;;;;;;;;;21.20;26.24;97583.88;4956722;29;1859;-73
2022/04/11 11:18:19;;;;;;;;;;;;;;;21.13;26.37;97578.41;4956438;29;1867;-73
2022/04/11 11:20:54;;;;;;;;;;;;;;;21.70;25.61;97576.59;4956771;29;1812;-73
2022/04/11 11:23:25;;;;;;;;;;;;;;;22.07;25.36;97591.13;4937206;29;1822;-73
2022/04/11 11:25:51;;;;;;;;;;;;;;;21.51;26.01;97597.47;4929998;29;1922;-73
2022/04/11 11:28:16;;;;;;;;;;;;;;;21.21;26.14;97588.28;4921781;29;2015;-73
2022/04/11 11:30:42;;;;;;;;;;;;;;;21.25;26.42;97602.31;4937210;29;1558;-73
2022/04/11 11:33:08;;;;;;;;;;;;;;;21.26;26.15;97587.72;4938040;29;1025;-72
2022/04/11 11:35:33;;;;;;;;;;;;;;;21.53;25.78;97594.97;4936728;29;1666;-72
2022/04/11 11:38:03;;;;;;;;;;;;;;;21.75;25.88;97612.03;4934348;29;1866;-74
2022/04/11 11:40:29;;;;;;;;;;;;;;;21.58;25.83;97597.22;4937439;29;2059;-73
2022/04/11 11:42:56;;;;;;;;;;;;;;;21.38;26.17;97600.31;4922166;29;1029;-73
2022/04/11 11:45:30;;;;;;;;;;;;;;;21.38;25.98;97593.84;4898982;29;1948;-73
2022/04/11 11:47:56;;;;;;;;;;;;;;;21.72;25.58;97596.78;4899859;29;1053;-72
2022/04/11 11:50:21;;;;;;;;;;;;;;;21.96;25.06;97588.66;4901752;29;2366;-73
2022/04/11 11:52:57;;;;;;;;;;;;;;;21.54;25.80;97585.22;4917438;29;2071;-73
2022/04/11 11:55:22;;;;;;;;;;;;;;;21.44;25.60;97586.38;4972755;28;1844;-74
2022/04/11 11:57:51;;;;;;;;;;;;;;;21.20;25.83;97577.44;4966393;28;1933;-73
2022/04/11 12:00:16;;;;;;;;;;;;;;;21.60;25.46;97583.41;4969161;28;1649;-74
2022/04/11 12:05:26;;;;;;;;;;;;;;;22.04;24.75;97580.72;4968104;28;1977;-73
2022/04/11 12:07:52;;;;;;;;;;;;;;;21.63;25.30;97576.84;4956624;29;1069;-73
2022/04/11 12:10:18;;;;;;;;;;;;;;;21.54;25.42;97585.22;4970426;28;1331;-73
2022/04/11 12:12:44;;;;;;;;;;;;;;;21.23;25.90;97594.28;4974090;28;1819;-73
2022/04/11 12:15:10;;;;;;;;;;;;;;;21.22;26.06;97592.69;4975050;28;1872;-73
2022/04/11 12:17:36;;;;;;;;;;;;;;;21.14;26.10;97597.00;4997145;28;1845;-73
2022/04/11 12:20:09;;;;;;;;;;;;;;;21.08;26.13;97599.56;4956330;29;1018;-74
2022/04/11 12:22:34;;;;;;;;;;;;;;;21.04;26.15;97600.97;4956282;29;1658;-73
2022/04/11 12:25:18;;;;;;;;;;;;;;;21.14;26.02;97602.66;4956205;29;1983;-73
2022/04/11 12:27:43;;;;;;;;;;;;;;;21.07;26.27;97597.22;4940209;29;966;-73
2022/04/11 12:30:12;;;;;;;;;;;;;;;21.52;25.51;97596.22;4924554;29;997;-73
2022/04/11 12:32:39;;;;;;;;;;;;;;;21.92;24.72;97598.56;4956098;29;1034;-73
2022/04/11 12:35:17;;;;;;;;;;;;;;;21.92;24.73;97599.34;4917761;29;2136;-73
2022/04/11 12:37:46;;;;;;;;;;;;;;;21.40;25.36;97591.34;4917717;29;935;-73
2022/04/11 12:40:11;;;;;;;;;;;;;;;21.08;26.00;97598.78;4917781;29;939;-73
2022/04/11 12:42:36;;;;;;;;;;;;;;;20.89;26.52;97596.97;4917968;29;1054;-73
2022/04/11 12:45:05;;;;;;;;;;;;;;;20.98;26.33;97594.25;4898539;29;1981;-74
2022/04/11 12:47:32;;;;;;;;;;;;;;;21.58;25.30;97585.91;4897942;29;1615;-73
2022/04/11 12:49:57;;;;;;;;;;;;;;;21.81;24.69;97582.72;4897878;29;1531;-73
2022/04/11 12:52:24;;;;;;;;;;;;;;;21.39;25.49;97584.09;4898126;29;1855;-73
2022/04/11 12:54:50;;;;;;;;;;;;;;;21.25;25.59;97597.47;4877947;29;1922;-73
2022/04/11 12:57:20;;;;;;;;;;;;;;;21.01;26.02;97594.16;4902545;29;1559;-73
2022/04/11 12:59:45;;;;;;;;;;;;;;;21.44;25.24;97590.00;4935713;29;1876;-73
2022/04/11 13:02:14;;;;;;;;;;;;;;;21.68;24.85;97564.94;4935964;29;2285;-73